createdAt,value
2023-01-08T00:00:29.084Z,96.30
2023-01-08T00:04:30.871Z,96.00
2023-01-08T00:08:33.416Z,95.80
2023-01-08T00:12:35.177Z,96.50
2023-01-08T00:16:37.447Z,96.20
2023-01-08T00:20:43.482Z,96.10
2023-01-08T00:24:45.270Z,96.00
2023-01-08T00:28:47.128Z,96.10
2023-01-08T00:32:48.929Z,96.20
2023-01-08T00:36:50.684Z,96.60
2023-01-08T00:40:52.396Z,97.20
2023-01-08T00:44:54.409Z,96.90
2023-01-08T00:48:56.154Z,96.80
2023-01-08T00:52:58.104Z,96.70
2023-01-08T00:56:59.886Z,96.70
2023-01-08T01:01:02.264Z,96.70
2023-01-08T01:05:04.946Z,96.40
2023-01-08T01:09:06.865Z,96.70
2023-01-08T01:13:08.717Z,96.70
2023-01-08T01:17:12.014Z,96.90
2023-01-08T01:21:25.526Z,97.00
2023-01-08T01:25:27.413Z,97.40
2023-01-08T01:29:29.164Z,97.60
2023-01-08T01:33:32.824Z,97.40
2023-01-08T01:37:34.779Z,97.20
2023-01-08T01:41:40.909Z,97.20
2023-01-08T01:45:43.010Z,96.80
2023-01-08T01:49:54.268Z,96.90
2023-01-08T01:53:57.413Z,97.50
2023-01-08T01:58:08.388Z,97.80
2023-01-08T02:02:10.329Z,97.80
2023-01-08T02:06:15.178Z,97.70
2023-01-08T02:10:19.661Z,97.60
2023-01-08T02:14:38.253Z,97.50
2023-01-08T02:18:56.259Z,97.40
2023-01-08T02:23:08.658Z,98.00
2023-01-08T02:27:13.213Z,97.90
2023-01-08T02:31:16.464Z,97.30
2023-01-08T02:35:18.446Z,97.10
2023-01-08T02:39:30.315Z,97.40
2023-01-08T02:43:42.985Z,97.70
2023-01-08T02:47:54.470Z,97.80
2023-01-08T02:51:58.426Z,97.40
2023-01-08T02:56:07.918Z,97.30
2023-01-08T03:00:10.612Z,97.30
2023-01-08T03:04:21.620Z,97.40
2023-01-08T03:08:24.355Z,97.40
2023-01-08T03:12:51.801Z,97.10
2023-01-08T03:17:06.933Z,97.50
2023-01-08T03:21:09.577Z,97.60
2023-01-08T03:25:14.250Z,97.20
2023-01-08T03:29:19.828Z,97.50
2023-01-08T03:33:23.997Z,97.60
2023-01-08T03:37:32.095Z,97.60
2023-01-08T03:41:36.739Z,97.80
2023-01-08T03:45:44.516Z,97.60
2023-01-08T03:49:48.610Z,97.50
2023-01-08T03:53:54.291Z,97.40
2023-01-08T03:57:56.090Z,97.20
2023-01-08T04:01:57.944Z,97.60
2023-01-08T04:06:00.635Z,98.20
2023-01-08T04:10:02.732Z,98.60
2023-01-08T04:14:04.512Z,98.40
2023-01-08T04:18:06.464Z,97.90
2023-01-08T04:22:10.821Z,97.80
2023-01-08T04:26:12.584Z,97.90
2023-01-08T04:30:14.466Z,97.90
2023-01-08T04:34:16.238Z,97.70
2023-01-08T04:38:18.422Z,97.80
2023-01-08T04:42:20.239Z,98.00
2023-01-08T04:46:22.136Z,98.20
2023-01-08T04:50:24.347Z,98.20
2023-01-08T04:54:26.099Z,98.00
2023-01-08T04:58:27.911Z,98.20
2023-01-08T05:02:30.025Z,98.20
2023-01-08T05:06:33.038Z,98.00
2023-01-08T05:10:34.847Z,97.80
2023-01-08T05:14:36.604Z,97.70
2023-01-08T05:18:38.347Z,97.70
2023-01-08T05:22:40.130Z,97.60
2023-01-08T05:26:41.851Z,97.50
2023-01-08T05:30:43.610Z,97.80
2023-01-08T05:34:45.921Z,97.90
2023-01-08T05:38:47.865Z,97.80
2023-01-08T05:42:49.607Z,97.60
2023-01-08T05:46:53.738Z,97.50
2023-01-08T05:50:55.971Z,97.50
2023-01-08T05:55:00.009Z,97.40
2023-01-08T05:59:01.816Z,97.60
2023-01-08T06:03:03.702Z,97.60
2023-01-08T06:07:05.516Z,97.60
2023-01-08T06:11:10.448Z,97.40
2023-01-08T06:15:12.884Z,97.60
2023-01-08T06:19:14.782Z,97.70
2023-01-08T06:23:16.563Z,97.80
2023-01-08T06:27:18.480Z,97.70
2023-01-08T06:31:20.316Z,97.70
2023-01-08T06:35:22.073Z,97.60
2023-01-08T06:39:23.913Z,97.70
2023-01-08T06:43:25.725Z,97.70
2023-01-08T06:47:27.514Z,97.60
2023-01-08T06:51:29.296Z,97.30
2023-01-08T06:55:31.176Z,97.40
2023-01-08T06:59:32.944Z,97.40
2023-01-08T07:03:34.825Z,97.40
2023-01-08T07:07:36.628Z,97.60
2023-01-08T07:11:38.512Z,97.60
2023-01-08T07:15:41.540Z,97.40
2023-01-08T07:19:43.671Z,97.50
2023-01-08T07:23:47.704Z,97.50
2023-01-08T07:27:49.811Z,97.40
2023-01-08T07:31:51.589Z,97.30
2023-01-08T07:35:56.599Z,97.40
2023-01-08T07:39:58.938Z,97.40
2023-01-08T07:44:00.698Z,97.60
2023-01-08T07:48:02.550Z,97.60
2023-01-08T07:52:05.444Z,97.80
2023-01-08T07:56:09.431Z,97.70
2023-01-08T08:00:11.821Z,97.60
2023-01-08T08:04:16.868Z,97.50
2023-01-08T08:08:18.818Z,97.60
2023-01-08T08:12:20.578Z,97.50
2023-01-08T08:16:22.366Z,97.60
2023-01-08T08:20:24.947Z,97.60
2023-01-08T08:24:26.688Z,97.70
2023-01-08T08:28:28.452Z,97.40
2023-01-08T08:32:30.260Z,97.30
2023-01-08T08:36:32.124Z,97.70
2023-01-08T08:40:34.031Z,97.70
2023-01-08T08:44:35.814Z,98.00
2023-01-08T08:48:37.655Z,98.40
2023-01-08T08:52:39.858Z,98.50
2023-01-08T08:56:41.632Z,98.50
2023-01-08T09:00:43.796Z,98.50
2023-01-08T09:04:45.587Z,98.60
2023-01-08T09:08:47.416Z,98.50
2023-01-08T09:12:49.682Z,98.40
2023-01-08T09:16:51.572Z,98.30
2023-01-08T09:20:53.313Z,98.30
2023-01-08T09:24:55.210Z,98.20
2023-01-08T09:28:58.837Z,98.30
2023-01-08T09:33:02.864Z,98.30
2023-01-08T09:37:05.885Z,98.30
2023-01-08T09:41:13.310Z,98.40
2023-01-08T09:45:29.287Z,98.50
2023-01-08T09:49:42.067Z,98.90
2023-01-08T09:53:44.810Z,99.40
2023-01-08T09:57:47.989Z,99.40
2023-01-08T10:01:52.373Z,99.50
2023-01-08T10:05:54.334Z,99.40
2023-01-08T10:09:56.324Z,98.60
2023-01-08T10:13:58.238Z,98.60
2023-01-08T10:18:05.624Z,98.60
2023-01-08T10:22:18.651Z,98.70
2023-01-08T10:26:32.860Z,98.80
2023-01-08T10:30:37.898Z,99.00
2023-01-08T10:34:42.944Z,99.00
2023-01-08T10:39:21.135Z,99.00
2023-01-08T10:43:36.921Z,99.10
2023-01-08T10:47:39.240Z,99.20
2023-01-08T10:51:50.799Z,99.70
2023-01-08T10:56:01.419Z,99.90
2023-01-08T11:00:03.513Z,99.90
2023-01-08T11:04:06.026Z,99.90
2023-01-08T11:08:20.694Z,99.90
2023-01-08T11:12:37.026Z,99.90
2023-01-08T11:16:41.372Z,99.90
2023-01-08T11:20:43.245Z,99.90
2023-01-08T11:24:46.371Z,99.90
2023-01-08T11:29:04.280Z,99.90
2023-01-08T11:33:13.171Z,99.90
2023-01-08T11:37:26.385Z,99.90
2023-01-08T11:41:54.311Z,99.90
2023-01-08T11:46:18.942Z,99.90
2023-01-08T11:51:14.787Z,99.90
2023-01-08T11:55:40.900Z,99.90
2023-01-08T12:00:14.182Z,99.90
2023-01-08T12:04:37.475Z,99.90
2023-01-08T12:09:09.893Z,99.90
2023-01-08T12:13:18.423Z,99.90
2023-01-08T12:17:49.365Z,99.90
2023-01-08T12:22:07.504Z,99.90
2023-01-08T12:26:29.813Z,99.90
2023-01-08T12:30:46.972Z,99.90
2023-01-08T12:35:36.395Z,99.90
2023-01-08T12:40:12.761Z,99.90
2023-01-08T12:44:23.893Z,99.90
2023-01-08T12:48:30.044Z,99.90
2023-01-08T12:53:06.790Z,99.90
2023-01-08T12:57:44.826Z,99.90
2023-01-08T13:02:12.829Z,99.90
2023-01-08T13:06:18.452Z,99.90
2023-01-08T13:10:39.492Z,99.90
2023-01-08T13:14:49.090Z,99.90
2023-01-08T13:18:53.637Z,99.90
2023-01-08T13:23:01.104Z,99.90
2023-01-08T13:27:28.400Z,99.90
2023-01-08T13:31:40.087Z,99.90
2023-01-08T13:35:41.964Z,99.90
2023-01-08T13:39:43.799Z,99.90
2023-01-08T13:43:46.687Z,99.90
2023-01-08T13:47:48.590Z,99.90
2023-01-08T13:51:50.642Z,99.90
2023-01-08T13:56:08.673Z,99.90
2023-01-08T14:00:23.695Z,99.90
2023-01-08T14:04:25.718Z,99.90
2023-01-08T14:08:27.724Z,99.90
2023-01-08T14:12:29.661Z,99.90
2023-01-08T14:16:33.343Z,99.90
2023-01-08T14:20:39.107Z,99.90
2023-01-08T14:24:44.771Z,99.90
2023-01-08T14:28:53.551Z,99.90
2023-01-08T14:32:57.313Z,99.90
2023-01-08T14:36:59.322Z,99.90
2023-01-08T14:41:09.220Z,99.90
2023-01-08T14:45:31.637Z,99.90
2023-01-08T14:49:40.757Z,99.90
2023-01-08T14:53:44.020Z,99.90
2023-01-08T14:57:56.517Z,99.90
2023-01-08T15:02:01.659Z,99.90
2023-01-08T15:06:05.289Z,99.90
2023-01-08T15:10:42.447Z,99.90
2023-01-08T15:14:44.379Z,99.90
2023-01-08T15:18:48.748Z,99.90
2023-01-08T15:22:50.730Z,99.90
2023-01-08T15:26:53.609Z,99.90
2023-01-08T15:30:56.809Z,99.90
2023-01-08T15:34:58.997Z,99.90
2023-01-08T15:39:00.906Z,99.90
2023-01-08T15:43:11.515Z,99.90
2023-01-08T15:47:13.371Z,99.90
2023-01-08T15:51:15.285Z,99.90
2023-01-08T15:55:21.562Z,99.90
2023-01-08T15:59:23.305Z,99.90
2023-01-08T16:03:25.780Z,99.90
2023-01-08T16:07:27.622Z,99.90
2023-01-08T16:11:29.653Z,99.90
2023-01-08T16:15:31.551Z,99.90
2023-01-08T16:19:33.781Z,99.90
2023-01-08T16:23:39.802Z,99.90
2023-01-08T16:27:43.057Z,99.90
2023-01-08T16:31:46.158Z,99.90
2023-01-08T16:35:57.131Z,99.90
2023-01-08T16:39:59.186Z,99.90
2023-01-08T16:44:01.187Z,99.90
2023-01-08T16:48:03.172Z,99.90
2023-01-08T16:52:05.239Z,99.90
2023-01-08T16:56:08.099Z,99.90
2023-01-08T17:00:10.695Z,99.90
2023-01-08T17:04:12.596Z,99.90
2023-01-08T17:08:19.901Z,99.90
2023-01-08T17:12:24.694Z,99.90
2023-01-08T17:16:26.595Z,99.90
2023-01-08T17:20:28.489Z,99.90
2023-01-08T17:24:30.272Z,99.90
2023-01-08T17:28:32.255Z,99.90
2023-01-08T17:32:34.041Z,99.90
2023-01-08T17:36:36.246Z,99.90
2023-01-08T17:40:38.100Z,99.90
2023-01-08T17:44:40.088Z,99.90
2023-01-08T17:48:44.778Z,99.90
2023-01-08T17:52:46.537Z,99.90
2023-01-08T17:56:48.969Z,99.90
2023-01-08T18:00:50.924Z,99.90
2023-01-08T18:04:52.835Z,99.90
2023-01-08T18:08:54.695Z,99.90
2023-01-08T18:12:56.433Z,99.90
2023-01-08T18:16:58.232Z,99.90
2023-01-08T18:21:00.045Z,99.90
2023-01-08T18:25:01.816Z,99.90
2023-01-08T18:29:04.123Z,99.90
2023-01-08T18:33:06.057Z,99.90
2023-01-08T18:37:07.848Z,99.90
2023-01-08T18:41:12.346Z,99.90
2023-01-08T18:45:15.169Z,99.90
2023-01-08T18:49:17.051Z,99.90
2023-01-08T18:53:18.864Z,99.90
2023-01-08T18:57:20.864Z,99.90
2023-01-08T19:01:23.104Z,99.90
2023-01-08T19:05:25.036Z,99.90
2023-01-08T19:09:27.878Z,99.90
2023-01-08T19:13:29.694Z,99.90
2023-01-08T19:17:32.297Z,99.90
2023-01-08T19:21:34.164Z,99.90
2023-01-08T19:25:38.991Z,99.90
2023-01-08T19:29:40.959Z,99.90
2023-01-08T19:33:43.755Z,99.90
2023-01-08T19:37:45.567Z,99.90
2023-01-08T19:42:06.211Z,99.90
2023-01-08T19:46:09.458Z,99.90
2023-01-08T19:50:11.905Z,99.90
2023-01-08T19:54:13.851Z,99.90
2023-01-08T19:58:16.951Z,99.90
2023-01-08T20:02:19.218Z,99.90
2023-01-08T20:06:24.341Z,99.90
2023-01-08T20:10:26.237Z,99.90
2023-01-08T20:14:28.055Z,99.90
2023-01-08T20:18:30.224Z,99.90
2023-01-08T20:22:32.020Z,99.90
2023-01-08T20:26:36.206Z,99.90
2023-01-08T20:30:37.999Z,99.90
2023-01-08T20:34:40.493Z,99.90
2023-01-08T20:38:43.624Z,99.90
2023-01-08T20:42:46.309Z,99.90
2023-01-08T20:46:48.266Z,99.90
2023-01-08T20:51:01.702Z,99.90
2023-01-08T20:55:04.435Z,99.90
2023-01-08T20:59:06.262Z,99.90
2023-01-08T21:03:08.078Z,99.90
2023-01-08T21:07:09.868Z,99.90
2023-01-08T21:11:13.452Z,99.90
2023-01-08T21:15:16.271Z,99.90
2023-01-08T21:19:18.059Z,99.90
2023-01-08T21:23:20.166Z,99.90
2023-01-08T21:27:22.068Z,99.90
2023-01-08T21:31:28.645Z,99.90
2023-01-08T21:35:33.542Z,99.90
2023-01-08T21:39:35.316Z,99.90
2023-01-08T21:43:55.513Z,99.90
2023-01-08T21:47:58.724Z,99.90
2023-01-08T21:52:19.655Z,99.90
2023-01-08T21:56:21.932Z,99.90
2023-01-08T22:00:24.984Z,99.90
2023-01-08T22:04:26.921Z,99.90
2023-01-08T22:08:30.995Z,99.90
2023-01-08T22:12:32.878Z,99.90
2023-01-08T22:16:34.750Z,99.90
2023-01-08T22:20:36.621Z,99.90
2023-01-08T22:24:39.824Z,99.90
2023-01-08T22:28:41.650Z,99.90
2023-01-08T22:32:43.536Z,99.90
2023-01-08T22:36:46.538Z,99.90
2023-01-08T22:40:48.352Z,99.90
2023-01-08T22:44:50.192Z,99.90
2023-01-08T22:48:52.111Z,99.90
2023-01-08T22:52:53.929Z,99.90
2023-01-08T22:56:55.740Z,99.90
2023-01-08T23:00:57.508Z,99.90
2023-01-08T23:04:59.314Z,99.90
2023-01-08T23:09:01.225Z,99.90
2023-01-08T23:13:03.161Z,99.90
2023-01-08T23:17:04.962Z,99.90
2023-01-08T23:21:10.408Z,99.90
2023-01-08T23:25:12.456Z,99.90
2023-01-08T23:29:14.415Z,99.90
2023-01-08T23:33:16.202Z,99.90
2023-01-08T23:37:18.078Z,99.90
2023-01-08T23:41:21.550Z,99.90
2023-01-08T23:45:23.312Z,99.90
2023-01-08T23:49:25.083Z,99.90
2023-01-08T23:53:27.236Z,99.90
2023-01-08T23:57:28.983Z,99.90
